Cedar Fort, Utah
Current Conditions -  °F | °C
As of 6:54 PM on Friday 28 Nov 2014 (Local Time) from KPVU Reporting Station
Few Clouds Few Clouds  
Wind Chill: 43°   Ceiling: Unl
Heat Index: 43°   Visibility: 15mi
Dew Point: 27°   Wind: 0mph
Humidity: 53%   Direction: NA
Pressure: 29.87"   Gusts: NA
Location:  40.1341°N, 112.043°W
Report Text: KPVU 290154Z 00000KT 15SM FEW150 06/M03 A2987
Loading
Personal Weather Stations






























Interactive Weather Map New forecast layout! Learn more

10-Day Weather Forecast

Advertisements
Track Severe Weather on mobile